LFLC/CFE METAR and TAF weather

Enter ICAO airport designator
Station Type Date Time Source
LFLC METAR 2022/06/27 09:00 UTC NOAA

LFLC 270900Z AUTO VRB01KT CAVOK 17/15 Q1019 TEMPO 4000 RA BKN008 FEW015CB OVC020


Station Type Date Time Source
LFLC Decoded METAR 2022/06/27 09:00 UTC NOAA

Clermont-Ferrand, France (LFLC) 45-47N 003-10E 330M
Jun 27, 2022 - 05:00 AM EDT / 2022.06.27 0900 UTC
Wind: Variable at 1 MPH (1 KT):0
Visibility: greater than 7 mile(s):0
Weather: Cumulonimbus clouds observed
Temperature: 62 F (17 C)
Dew Point: 59 F (15 C)
Relative Humidity: 88%
Pressure (altimeter): 30.09 in. Hg (1019 hPa)
ob: LFLC 270900Z AUTO VRB01KT CAVOK 17/15 Q1019 TEMPO 4000 RA BKN008 FEW015CB OVC020
cycle: 9

Station Type Date Time Source
LFLC TAF 2022/06/27 06:22 UTC NOAA

TAF LFLC 270500Z 2706/2806 36004KT 9999 BKN020
TEMPO 2706/2712 4000 RA BKN008 FEW015CB OVC020 PROB40
TEMPO 2706/2707 BKN003 PROB40
TEMPO 2802/2805 0500 BCFG VV///

Example: see airport list